To NAV CANADA Home Page Login to a new session Search on AWWS site Feedback and Comments Disclaimer Vers la page française équivalente Tips FAQ What's new on the site To the Forecasts and Observations / NOTAM section To "File a Flight Plan" website Publications and other links Update of the User's profile FIC Telephone Numbers My Weather Data Folder Route Weather Data Regional Weather Data Local Weather Data To the Forecasts and Observations / NOTAM section
Request Generated 08/22/2017 at 03:31:57 UTC . Weather information available at that time is displayed.

METAR/TAF

CARTWRIGHT/NL    

METAR CWCA 220300Z 27005KT 240V310 15SM BKN016 BKN070 08/06 A2976 RMK
SC5AC1 SLP080=
METAR CWCA 220200Z 32010G17KT 15SM BKN016 BKN070 08/06 A2976 RMK
SC5AC1 SLP081=
METAR CWCA 220100Z 34007KT 15SM BKN016 BKN070 08/06 A2975 RMK SC5AC1
SLP076=

TAF CYCA 220139Z 2202/2214 ADVISORY OFFSITE 33007KT P6SM BKN015
BKN070 TEMPO 2202/2209 SCT015 BKN070
FM220900 34008KT P6SM SCT015 OVC070 TEMPO 2209/2211 5SM -RA BR
OVC015 PROB30 2209/2211 BKN007
FM221100 36010KT 2SM -RA BR OVC007
RMK NXT FCST BY 220800Z=
Your time UTC time
Weather data provided by Environment Canada and NAV CANADA